createdAt,value
2018-06-24T00:01:13.302Z,3.80
2018-06-24T00:03:42.517Z,4.77
2018-06-24T00:06:11.752Z,5.07
2018-06-24T00:08:41.082Z,4.80
2018-06-24T00:11:10.623Z,4.40
2018-06-24T00:13:39.955Z,4.40
2018-06-24T00:16:09.166Z,4.40
2018-06-24T00:18:38.367Z,4.60
2018-06-24T00:21:07.561Z,4.70
2018-06-24T00:23:36.787Z,5.03
2018-06-24T00:26:06.011Z,4.62
2018-06-24T00:28:35.185Z,4.73
2018-06-24T00:31:04.395Z,4.83
2018-06-24T00:33:33.615Z,4.57
2018-06-24T00:36:02.836Z,4.33
2018-06-24T00:38:32.074Z,4.27
2018-06-24T00:41:01.330Z,4.60
2018-06-24T00:43:30.532Z,5.00
2018-06-24T00:45:59.718Z,5.13
2018-06-24T00:48:28.926Z,5.03
2018-06-24T00:50:58.148Z,5.17
2018-06-24T00:53:27.382Z,5.80
2018-06-24T00:55:56.560Z,5.77
2018-06-24T00:58:25.766Z,5.77
2018-06-24T01:00:54.966Z,5.87
2018-06-24T01:03:25.015Z,6.43
2018-06-24T01:05:54.215Z,6.63
2018-06-24T01:08:23.455Z,6.72
2018-06-24T01:10:52.658Z,6.30
2018-06-24T01:13:21.851Z,6.17
2018-06-24T01:15:51.067Z,5.83
2018-06-24T01:18:20.269Z,5.77
2018-06-24T01:20:49.475Z,5.00
2018-06-24T01:23:18.682Z,5.57
2018-06-24T01:25:47.875Z,6.03
2018-06-24T01:28:18.086Z,5.78
2018-06-24T01:30:47.301Z,5.80
2018-06-24T01:33:16.555Z,5.42
2018-06-24T01:35:45.762Z,5.67
2018-06-24T01:38:14.966Z,5.97
2018-06-24T01:40:44.209Z,5.37
2018-06-24T01:43:13.266Z,5.40
2018-06-24T01:45:42.509Z,5.80
2018-06-24T01:48:11.484Z,6.87
2018-06-24T01:50:40.475Z,5.60
2018-06-24T01:53:09.695Z,5.93
2018-06-24T01:55:38.900Z,5.63
2018-06-24T01:58:08.115Z,5.83
2018-06-24T02:00:37.298Z,6.23
2018-06-24T02:03:06.519Z,5.30
2018-06-24T02:05:35.731Z,5.83
2018-06-24T02:08:05.258Z,6.03
2018-06-24T02:10:34.507Z,6.47
2018-06-24T02:13:03.691Z,7.08
2018-06-24T02:15:32.899Z,6.80
2018-06-24T02:18:02.121Z,7.23
2018-06-24T02:20:31.346Z,7.00
2018-06-24T02:23:00.551Z,6.90
2018-06-24T02:25:29.758Z,8.00
2018-06-24T02:27:58.953Z,7.80
2018-06-24T02:30:28.365Z,7.00
2018-06-24T02:32:57.546Z,6.47
2018-06-24T02:35:26.739Z,6.23
2018-06-24T02:37:55.835Z,7.20
2018-06-24T02:40:26.099Z,6.80
2018-06-24T02:43:01.999Z,6.20
2018-06-24T02:45:31.299Z,5.83
2018-06-24T02:48:00.509Z,6.00
2018-06-24T02:50:29.736Z,6.30
2018-06-24T02:52:58.945Z,5.50
2018-06-24T02:55:28.156Z,6.10
2018-06-24T02:57:57.385Z,6.70
2018-06-24T03:00:26.714Z,6.30
2018-06-24T03:02:55.935Z,6.83
2018-06-24T03:05:25.119Z,7.23
2018-06-24T03:07:54.348Z,6.80
2018-06-24T03:10:23.640Z,8.30
2018-06-24T03:12:53.193Z,7.57
2018-06-24T03:15:22.363Z,7.73
2018-06-24T03:17:51.591Z,8.60
2018-06-24T03:20:20.791Z,7.90
2018-06-24T03:22:50.108Z,7.67
2018-06-24T03:25:19.310Z,7.78
2018-06-24T03:27:48.506Z,7.57
2018-06-24T03:30:17.722Z,7.10
2018-06-24T03:32:46.939Z,7.97
2018-06-24T03:35:16.147Z,6.80
2018-06-24T03:37:45.378Z,5.90
2018-06-24T03:40:14.559Z,5.90
2018-06-24T03:42:45.276Z,6.07
2018-06-24T03:45:14.487Z,5.73
2018-06-24T03:47:43.670Z,5.93
2018-06-24T03:50:12.930Z,5.77
2018-06-24T03:52:42.264Z,5.90
2018-06-24T03:55:11.467Z,5.97
2018-06-24T03:57:40.679Z,5.80
2018-06-24T04:00:09.879Z,4.97
2018-06-24T04:02:39.072Z,5.77
2018-06-24T04:05:08.264Z,5.60
2018-06-24T04:07:37.499Z,5.73
2018-06-24T04:10:06.734Z,5.03
2018-06-24T04:12:35.914Z,5.00
2018-06-24T04:15:05.124Z,5.40
2018-06-24T04:17:34.335Z,5.65
2018-06-24T04:20:03.531Z,5.80
2018-06-24T04:22:32.733Z,5.80
2018-06-24T04:25:01.970Z,6.13
2018-06-24T04:27:31.171Z,5.67
2018-06-24T04:30:00.387Z,5.83
2018-06-24T04:32:29.595Z,5.77
2018-06-24T04:34:58.801Z,6.10
2018-06-24T04:37:27.987Z,5.90
2018-06-24T04:39:57.189Z,5.83
2018-06-24T04:42:26.460Z,5.87
2018-06-24T04:44:55.677Z,5.80
2018-06-24T04:47:24.883Z,6.45
2018-06-24T04:49:53.854Z,7.27
2018-06-24T04:52:23.073Z,8.00
2018-06-24T04:54:52.326Z,7.77
2018-06-24T04:57:21.815Z,7.20
2018-06-24T04:59:51.130Z,6.67
2018-06-24T05:02:20.342Z,5.80
2018-06-24T05:04:49.579Z,5.93
2018-06-24T05:07:18.797Z,5.70
2018-06-24T05:09:47.999Z,5.10
2018-06-24T05:12:17.239Z,5.33
2018-06-24T05:14:46.553Z,5.17
2018-06-24T05:17:15.899Z,6.00
2018-06-24T05:19:45.116Z,5.70
2018-06-24T05:22:14.355Z,5.60
2018-06-24T05:24:43.600Z,6.63
2018-06-24T05:27:12.803Z,6.40
2018-06-24T05:29:42.075Z,5.67
2018-06-24T05:32:11.279Z,6.00
2018-06-24T05:34:40.486Z,5.73
2018-06-24T05:37:09.692Z,4.70
2018-06-24T05:39:38.901Z,4.97
2018-06-24T05:42:08.128Z,5.10
2018-06-24T05:44:37.317Z,5.07
2018-06-24T05:47:06.507Z,5.07
2018-06-24T05:49:35.815Z,5.40
2018-06-24T05:52:05.110Z,5.63
2018-06-24T05:54:34.328Z,5.10
2018-06-24T05:57:03.523Z,4.87
2018-06-24T05:59:32.815Z,5.37
2018-06-24T06:02:02.056Z,5.00
2018-06-24T06:04:31.254Z,5.40
2018-06-24T06:07:00.505Z,4.80
2018-06-24T06:09:29.699Z,5.03
2018-06-24T06:11:58.925Z,4.67
2018-06-24T06:14:28.699Z,5.10
2018-06-24T06:16:57.903Z,3.93
2018-06-24T06:19:27.078Z,4.17
2018-06-24T06:21:56.334Z,3.90
2018-06-24T06:24:25.539Z,3.90
2018-06-24T06:26:54.881Z,4.42
2018-06-24T06:29:24.169Z,4.20
2018-06-24T06:31:53.363Z,4.07
2018-06-24T06:34:22.588Z,4.00
2018-06-24T06:36:51.937Z,3.90
2018-06-24T06:39:21.112Z,3.67
2018-06-24T06:41:50.113Z,3.45
2018-06-24T06:44:19.374Z,3.85
2018-06-24T06:46:48.592Z,3.70
2018-06-24T06:49:17.798Z,3.80
2018-06-24T06:51:47.008Z,3.70
2018-06-24T06:54:16.218Z,3.70
2018-06-24T06:56:45.439Z,3.70
2018-06-24T06:59:14.650Z,3.80
2018-06-24T07:01:43.844Z,3.80
2018-06-24T07:04:13.047Z,3.92
2018-06-24T07:06:42.246Z,3.45
2018-06-24T07:09:11.945Z,4.27
2018-06-24T07:11:41.367Z,3.13
2018-06-24T07:14:10.641Z,3.62
2018-06-24T07:16:39.871Z,4.08
2018-06-24T07:19:09.047Z,3.75
2018-06-24T07:21:38.277Z,4.10
2018-06-24T07:24:07.471Z,3.67
2018-06-24T07:26:36.711Z,3.50
2018-06-24T07:29:05.923Z,3.80
2018-06-24T07:31:35.124Z,4.37
2018-06-24T07:34:04.322Z,3.83
2018-06-24T07:36:33.517Z,3.90
2018-06-24T07:39:04.445Z,3.70
2018-06-24T07:41:33.618Z,4.33
2018-06-24T07:44:02.822Z,4.13
2018-06-24T07:46:32.024Z,4.00
2018-06-24T07:49:01.222Z,4.03
2018-06-24T07:51:30.465Z,3.50
2018-06-24T07:53:59.708Z,3.57
2018-06-24T07:56:28.911Z,4.00
2018-06-24T07:58:58.138Z,3.93
2018-06-24T08:01:27.427Z,3.75
2018-06-24T08:03:56.664Z,3.42
2018-06-24T08:06:25.898Z,3.58
2018-06-24T08:08:55.187Z,3.23
2018-06-24T08:11:24.397Z,3.10
2018-06-24T08:13:53.610Z,3.30
2018-06-24T08:16:22.822Z,3.58
2018-06-24T08:18:52.134Z,3.63
2018-06-24T08:21:21.327Z,3.33
2018-06-24T08:23:50.609Z,3.45
2018-06-24T08:26:19.827Z,3.45
2018-06-24T08:28:49.047Z,4.05
2018-06-24T08:31:18.298Z,3.60
2018-06-24T08:33:47.489Z,3.47
2018-06-24T08:36:16.702Z,3.40
2018-06-24T08:38:45.923Z,3.52
2018-06-24T08:41:15.137Z,3.40
2018-06-24T08:43:44.367Z,3.50
2018-06-24T08:46:13.643Z,3.17
2018-06-24T08:48:42.941Z,3.35
2018-06-24T08:51:12.162Z,3.77
2018-06-24T08:53:41.363Z,4.23
2018-06-24T08:56:10.557Z,3.40
2018-06-24T08:58:39.767Z,3.37
2018-06-24T09:01:10.194Z,3.50
2018-06-24T09:03:39.392Z,3.65
2018-06-24T09:06:08.634Z,3.47
2018-06-24T09:08:37.903Z,3.37
2018-06-24T09:11:07.240Z,3.60
2018-06-24T09:13:36.457Z,2.80
2018-06-24T09:16:06.016Z,3.33
2018-06-24T09:18:35.313Z,3.20
2018-06-24T09:21:04.677Z,3.00
2018-06-24T09:23:33.923Z,3.15
2018-06-24T09:26:03.192Z,3.40
2018-06-24T09:28:32.409Z,3.25
2018-06-24T09:31:01.646Z,3.07
2018-06-24T09:33:30.858Z,2.80
2018-06-24T09:36:00.079Z,2.95
2018-06-24T09:38:29.263Z,2.90
2018-06-24T09:40:58.558Z,3.17
2018-06-24T09:43:27.685Z,3.20
2018-06-24T09:45:56.874Z,3.33
2018-06-24T09:48:26.067Z,2.80
2018-06-24T09:50:55.246Z,3.00
2018-06-24T09:53:24.446Z,2.60
2018-06-24T09:55:53.651Z,2.50
2018-06-24T09:58:22.877Z,2.37
2018-06-24T10:00:52.096Z,2.65
2018-06-24T10:03:21.326Z,2.67
2018-06-24T10:05:50.507Z,2.43
2018-06-24T10:08:19.701Z,2.60
2018-06-24T10:10:48.898Z,2.62
2018-06-24T10:13:18.093Z,2.80
2018-06-24T10:15:47.323Z,3.12
2018-06-24T10:18:16.539Z,2.70
2018-06-24T10:20:45.775Z,2.83
2018-06-24T10:23:14.958Z,2.65
2018-06-24T10:25:44.175Z,3.00
2018-06-24T10:28:13.397Z,2.90
2018-06-24T10:30:42.594Z,2.70
2018-06-24T10:33:11.783Z,2.58
2018-06-24T10:35:40.983Z,2.50
2018-06-24T10:38:10.187Z,2.40
2018-06-24T10:40:39.390Z,2.45
2018-06-24T10:43:08.592Z,2.20
2018-06-24T10:45:37.848Z,2.62
2018-06-24T10:48:07.734Z,2.80
2018-06-24T10:50:37.095Z,2.90
2018-06-24T10:53:07.025Z,2.60
2018-06-24T10:55:36.252Z,2.70
2018-06-24T10:58:05.861Z,2.93
2018-06-24T11:00:35.703Z,2.52
2018-06-24T11:03:04.922Z,2.47
2018-06-24T11:05:34.152Z,2.42
2018-06-24T11:08:03.362Z,2.60
2018-06-24T11:10:32.546Z,2.53
2018-06-24T11:13:01.772Z,2.50
2018-06-24T11:15:31.092Z,2.40
2018-06-24T11:18:00.303Z,2.87
2018-06-24T11:20:29.507Z,2.80
2018-06-24T11:22:58.795Z,2.47
2018-06-24T11:25:29.238Z,2.85
2018-06-24T11:27:58.467Z,2.80
2018-06-24T11:30:27.646Z,2.33
2018-06-24T11:32:56.871Z,2.20
2018-06-24T11:35:26.106Z,2.55
2018-06-24T11:37:55.343Z,2.60
2018-06-24T11:40:24.546Z,2.23
2018-06-24T11:42:53.797Z,2.23
2018-06-24T11:45:23.024Z,2.63
2018-06-24T11:47:52.242Z,2.62
2018-06-24T11:50:21.453Z,2.67
2018-06-24T11:52:51.117Z,2.70
2018-06-24T11:55:20.364Z,2.67
2018-06-24T11:57:49.566Z,2.47
2018-06-24T12:00:18.757Z,2.77
2018-06-24T12:02:48.080Z,2.60
2018-06-24T12:05:17.197Z,2.57
2018-06-24T12:07:46.407Z,2.87
2018-06-24T12:10:15.607Z,2.85
2018-06-24T12:12:44.842Z,2.40
2018-06-24T12:15:14.035Z,2.40
2018-06-24T12:17:43.263Z,2.30
2018-06-24T12:20:12.515Z,2.60
2018-06-24T12:22:41.703Z,2.42
2018-06-24T12:25:10.907Z,2.50
2018-06-24T12:27:40.171Z,2.37
2018-06-24T12:30:09.747Z,2.70
2018-06-24T12:32:39.012Z,2.40
2018-06-24T12:35:08.263Z,2.72
2018-06-24T12:37:37.467Z,2.47
2018-06-24T12:40:06.732Z,2.70
2018-06-24T12:42:35.904Z,2.50
2018-06-24T12:45:05.326Z,2.50
2018-06-24T12:47:34.514Z,2.70
2018-06-24T12:50:03.735Z,2.67
2018-06-24T12:52:32.932Z,2.43
2018-06-24T12:55:02.114Z,2.57
2018-06-24T12:57:31.335Z,2.47
2018-06-24T13:00:00.997Z,2.45
2018-06-24T13:02:29.782Z,2.40
2018-06-24T13:04:58.961Z,2.40
2018-06-24T13:07:28.168Z,2.40
2018-06-24T13:09:57.344Z,2.45
2018-06-24T13:12:26.538Z,2.47
2018-06-24T13:14:55.742Z,2.15
2018-06-24T13:17:24.938Z,2.50
2018-06-24T13:19:54.190Z,2.27
2018-06-24T13:22:23.407Z,2.25
2018-06-24T13:24:52.615Z,2.10
2018-06-24T13:27:21.804Z,2.50
2018-06-24T13:29:51.023Z,2.47
2018-06-24T13:32:20.223Z,2.27
2018-06-24T13:34:49.465Z,2.33
2018-06-24T13:37:18.645Z,2.30
2018-06-24T13:39:47.894Z,2.52
2018-06-24T13:42:17.134Z,2.30
2018-06-24T13:44:46.302Z,2.27
2018-06-24T13:47:16.344Z,2.70
2018-06-24T13:49:45.530Z,2.30
2018-06-24T13:52:14.750Z,2.70
2018-06-24T13:54:43.958Z,2.80
2018-06-24T13:57:13.203Z,2.60
2018-06-24T13:59:42.404Z,2.80
2018-06-24T14:02:11.589Z,2.30
2018-06-24T14:04:40.812Z,2.57
2018-06-24T14:07:09.994Z,2.50
2018-06-24T14:09:39.222Z,2.45
2018-06-24T14:12:08.474Z,2.37
2018-06-24T14:14:37.671Z,2.72
2018-06-24T14:17:06.879Z,2.83
2018-06-24T14:19:36.079Z,2.80
2018-06-24T14:22:05.287Z,2.90
2018-06-24T14:24:34.504Z,2.52
2018-06-24T14:27:03.695Z,2.60
2018-06-24T14:29:32.923Z,2.37
2018-06-24T14:32:02.124Z,2.42
2018-06-24T14:34:31.314Z,2.27
2018-06-24T14:37:00.509Z,2.40
2018-06-24T14:39:29.747Z,2.50
2018-06-24T14:41:58.947Z,2.60
2018-06-24T14:44:28.174Z,2.58
2018-06-24T14:46:57.374Z,2.40
2018-06-24T14:49:26.601Z,2.65
2018-06-24T14:51:55.783Z,2.60
2018-06-24T14:54:24.994Z,2.50
2018-06-24T14:56:54.196Z,2.50
2018-06-24T14:59:23.523Z,2.40
2018-06-24T15:01:52.752Z,2.50
2018-06-24T15:04:22.049Z,2.40
2018-06-24T15:06:51.241Z,2.65
2018-06-24T15:09:20.664Z,2.33
2018-06-24T15:11:49.856Z,2.30
2018-06-24T15:14:19.034Z,2.40
2018-06-24T15:16:48.231Z,2.37
2018-06-24T15:19:17.451Z,2.33
2018-06-24T15:21:46.647Z,2.62
2018-06-24T15:24:15.863Z,2.33
2018-06-24T15:26:45.064Z,2.63
2018-06-24T15:29:14.347Z,2.75
2018-06-24T15:31:43.547Z,2.70
2018-06-24T15:34:12.754Z,2.52
2018-06-24T15:36:41.979Z,2.40
2018-06-24T15:39:12.354Z,2.47
2018-06-24T15:41:42.050Z,2.80
2018-06-24T15:44:11.260Z,2.37
2018-06-24T15:46:40.432Z,2.30
2018-06-24T15:49:09.634Z,2.63
2018-06-24T15:51:39.763Z,2.43
2018-06-24T15:54:08.970Z,2.50
2018-06-24T15:56:38.161Z,2.65
2018-06-24T15:59:07.335Z,2.90
2018-06-24T16:01:36.528Z,2.70
2018-06-24T16:04:05.720Z,2.50
2018-06-24T16:06:34.901Z,2.40
2018-06-24T16:09:06.050Z,2.87
2018-06-24T16:11:35.243Z,2.60
2018-06-24T16:14:04.454Z,2.23
2018-06-24T16:16:33.736Z,2.40
2018-06-24T16:19:02.936Z,2.46
2018-06-24T16:21:32.351Z,2.55
2018-06-24T16:24:01.534Z,2.85
2018-06-24T16:26:30.735Z,2.60
2018-06-24T16:28:59.931Z,2.60
2018-06-24T16:31:29.139Z,3.00
2018-06-24T16:33:58.315Z,2.92
2018-06-24T16:36:27.523Z,2.55
2018-06-24T16:38:56.718Z,3.10
2018-06-24T16:41:25.902Z,3.00
2018-06-24T16:43:55.100Z,2.83
2018-06-24T16:46:24.278Z,2.90
2018-06-24T16:48:53.479Z,2.83
2018-06-24T16:51:22.674Z,2.53
2018-06-24T16:53:51.874Z,3.07
2018-06-24T16:56:21.075Z,2.90
2018-06-24T16:58:50.270Z,2.87
2018-06-24T17:01:19.459Z,2.90
2018-06-24T17:03:48.725Z,2.60
2018-06-24T17:06:17.851Z,2.72
2018-06-24T17:08:47.061Z,2.70
2018-06-24T17:11:16.298Z,2.52
2018-06-24T17:13:45.555Z,2.60
2018-06-24T17:16:14.755Z,3.07
2018-06-24T17:18:43.955Z,2.80
2018-06-24T17:21:13.286Z,3.12
2018-06-24T17:23:42.504Z,2.67
2018-06-24T17:26:14.567Z,2.90
2018-06-24T17:28:43.766Z,2.73
2018-06-24T17:31:12.968Z,2.97
2018-06-24T17:33:42.167Z,2.55
2018-06-24T17:36:11.382Z,2.77
2018-06-24T17:38:40.621Z,2.75
2018-06-24T17:41:09.886Z,2.53
2018-06-24T17:43:39.131Z,2.80
2018-06-24T17:46:08.360Z,2.30
2018-06-24T17:48:37.506Z,2.50
2018-06-24T17:51:06.718Z,2.40
2018-06-24T17:53:35.915Z,2.77
2018-06-24T17:56:05.145Z,2.60
2018-06-24T18:14:19.826Z,2.30
2018-06-24T18:16:49.059Z,2.80
2018-06-24T18:19:19.006Z,2.42
2018-06-24T18:21:48.215Z,2.95
2018-06-24T18:24:17.414Z,2.53
2018-06-24T18:26:46.628Z,2.63
2018-06-24T18:29:15.851Z,2.58
2018-06-24T18:31:45.052Z,2.27
2018-06-24T18:34:14.263Z,2.65
2018-06-24T18:36:43.470Z,2.50
2018-06-24T18:39:12.706Z,2.80
2018-06-24T18:41:41.923Z,2.47
2018-06-24T18:44:11.118Z,2.70
2018-06-24T18:46:40.306Z,2.70
2018-06-24T18:49:09.526Z,2.77
2018-06-24T18:51:38.718Z,3.17
2018-06-24T18:54:08.171Z,2.90
2018-06-24T18:56:37.631Z,2.72
2018-06-24T18:59:06.883Z,2.80
2018-06-24T19:01:36.116Z,2.80
2018-06-24T19:04:05.444Z,2.80
2018-06-24T19:06:34.656Z,3.30
2018-06-24T19:09:05.583Z,2.83
2018-06-24T19:11:34.856Z,2.80
2018-06-24T19:14:04.186Z,2.98
2018-06-24T19:16:33.415Z,3.10
2018-06-24T19:19:02.633Z,3.17
2018-06-24T19:21:31.819Z,2.80
2018-06-24T19:24:01.016Z,3.20
2018-06-24T19:26:30.215Z,3.13
2018-06-24T19:28:59.426Z,2.80
2018-06-24T19:31:28.626Z,3.43
2018-06-24T19:33:57.877Z,3.00
2018-06-24T19:36:27.091Z,3.00
2018-06-24T19:38:56.347Z,3.20
2018-06-24T19:41:25.650Z,3.17
2018-06-24T19:43:54.822Z,3.10
2018-06-24T19:46:24.014Z,2.77
2018-06-24T19:48:53.227Z,2.92
2018-06-24T19:51:22.433Z,3.33
2018-06-24T19:53:52.876Z,3.20
2018-06-24T19:56:22.070Z,3.17
2018-06-24T19:58:51.283Z,3.27
2018-06-24T20:01:20.499Z,3.25
2018-06-24T20:03:49.695Z,3.00
2018-06-24T20:06:18.900Z,3.23
2018-06-24T20:08:48.098Z,3.07
2018-06-24T20:11:17.326Z,3.30
2018-06-24T20:13:46.542Z,2.90
2018-06-24T20:16:15.741Z,2.83
2018-06-24T20:18:44.995Z,3.23
2018-06-24T20:21:14.198Z,3.20
2018-06-24T20:23:43.399Z,3.37
2018-06-24T20:26:12.578Z,3.07
2018-06-24T20:28:41.771Z,3.13
2018-06-24T20:31:10.971Z,3.40
2018-06-24T20:33:40.263Z,3.57
2018-06-24T20:36:09.587Z,3.43
2018-06-24T20:38:38.782Z,3.57
2018-06-24T20:41:08.011Z,3.70
2018-06-24T20:43:37.198Z,3.27
2018-06-24T20:46:06.408Z,3.27
2018-06-24T20:48:35.602Z,3.57
2018-06-24T20:51:04.841Z,3.20
2018-06-24T20:53:34.026Z,3.20
2018-06-24T20:56:03.206Z,3.10
2018-06-24T20:58:32.425Z,3.20
2018-06-24T21:01:01.598Z,3.30
2018-06-24T21:03:30.826Z,2.87
2018-06-24T21:06:00.023Z,3.17
2018-06-24T21:08:29.237Z,3.47
2018-06-24T21:10:58.439Z,3.30
2018-06-24T21:13:27.627Z,3.40
2018-06-24T21:15:56.824Z,3.50
2018-06-24T21:18:26.013Z,3.47
2018-06-24T21:20:55.212Z,3.30
2018-06-24T21:23:24.421Z,3.70
2018-06-24T21:25:53.622Z,3.67
2018-06-24T21:28:22.820Z,3.47
2018-06-24T21:30:52.054Z,3.50
2018-06-24T21:33:21.254Z,3.50
2018-06-24T21:35:50.453Z,3.40
2018-06-24T21:38:19.636Z,3.50
2018-06-24T21:40:48.830Z,3.43
2018-06-24T21:43:18.025Z,3.43
2018-06-24T21:45:47.216Z,3.17
2018-06-24T21:48:16.407Z,3.27
2018-06-24T21:50:45.597Z,3.30
2018-06-24T21:53:14.799Z,3.90
2018-06-24T21:55:43.998Z,3.53
2018-06-24T21:58:13.209Z,3.30
2018-06-24T22:00:42.396Z,3.50
2018-06-24T22:03:11.575Z,3.70
2018-06-24T22:05:40.983Z,3.30
2018-06-24T22:08:10.181Z,3.10
2018-06-24T22:10:39.377Z,3.50
2018-06-24T22:13:08.599Z,3.57
2018-06-24T22:15:37.791Z,3.33
2018-06-24T22:18:06.996Z,3.40
2018-06-24T22:20:36.185Z,3.30
2018-06-24T22:23:05.462Z,3.50
2018-06-24T22:25:34.650Z,3.33
2018-06-24T22:28:03.862Z,3.53
2018-06-24T22:30:33.052Z,3.37
2018-06-24T22:33:02.259Z,3.83
2018-06-24T22:35:31.451Z,3.60
2018-06-24T22:38:00.639Z,3.80
2018-06-24T22:40:29.835Z,3.43
2018-06-24T22:42:59.035Z,3.67
2018-06-24T22:45:28.211Z,3.43
2018-06-24T22:47:57.416Z,3.40
2018-06-24T22:50:26.608Z,3.30
2018-06-24T22:52:55.799Z,3.70
2018-06-24T22:55:24.994Z,3.40
2018-06-24T22:57:54.190Z,3.20
2018-06-24T23:00:23.373Z,3.10
2018-06-24T23:02:52.611Z,3.13
2018-06-24T23:05:21.797Z,3.50
2018-06-24T23:07:51.003Z,3.67
2018-06-24T23:10:20.198Z,3.60
2018-06-24T23:12:49.413Z,3.80
2018-06-24T23:15:18.619Z,3.83
2018-06-24T23:17:47.810Z,3.47
2018-06-24T23:20:17.029Z,3.10
2018-06-24T23:22:46.223Z,4.10
2018-06-24T23:25:15.421Z,3.80
2018-06-24T23:27:44.608Z,3.60
2018-06-24T23:30:13.806Z,3.87
2018-06-24T23:32:42.998Z,4.33
2018-06-24T23:35:12.194Z,4.50
2018-06-24T23:37:41.399Z,3.90
2018-06-24T23:40:11.470Z,3.75
2018-06-24T23:42:40.659Z,3.83
2018-06-24T23:45:09.859Z,4.35
2018-06-24T23:47:39.069Z,4.10
2018-06-24T23:50:08.275Z,4.07
2018-06-24T23:52:37.450Z,4.03
2018-06-24T23:55:06.911Z,4.00
2018-06-24T23:57:36.119Z,3.87
